Time;durP1;ratioP1;P1;durP2;ratioP2;P2;SDS_P1;SDS_P2;PMS_P1;PMS_P2;Temp;Humidity;BMP_temperature;BMP_pressure;BME280_temperature;BME280_humidity;BME280_pressure;Samples;Min_cycle;Max_cycle;Signal;HPM_P1;HPM_P2
2022/06/02 00:01:45;;;;;;;5.90;5.37;;;;;;;14.92;82.49;100178.06;2844343;82;21622;-91
2022/06/02 00:06:08;;;;;;;9.33;5.87;;;;;;;14.69;83.31;100165.16;2836820;82;21043;-91
2022/06/02 00:10:22;;;;;;;7.03;6.42;;;;;;;14.56;83.83;100175.45;2854355;82;21015;-91
2022/06/02 00:14:48;;;;;;;6.85;4.60;;;;;;;14.59;83.64;100181.83;2851800;82;21177;-90
2022/06/02 00:18:59;;;;;;;7.43;6.23;;;;;;;14.61;82.89;100187.01;2825348;82;21028;-90
2022/06/02 00:23:21;;;;;;;8.75;5.42;;;;;;;14.62;82.59;100189.54;2835099;83;21771;-90
2022/06/02 00:27:33;;;;;;;8.05;7.25;;;;;;;14.64;82.05;100191.56;2830811;82;21031;-90
2022/06/02 00:31:40;;;;;;;6.87;5.95;;;;;;;14.51;81.61;100182.59;2785380;83;21130;-90
2022/06/02 00:35:57;;;;;;;7.20;5.58;;;;;;;14.42;80.82;100188.38;2772534;84;21001;-90
2022/06/02 00:40:04;;;;;;;6.28;5.17;;;;;;;14.27;80.14;100187.22;2736919;84;21542;-92
2022/06/02 00:44:28;;;;;;;7.20;5.58;;;;;;;14.05;80.40;100180.47;2744097;85;21061;-90
2022/06/02 00:48:58;;;;;;;6.10;4.92;;;;;;;13.90;80.89;100187.69;2745800;84;21101;-89
2022/06/02 00:53:32;;;;;;;5.75;5.17;;;;;;;13.83;80.64;100194.13;2794303;84;21104;-89
2022/06/02 00:57:58;;;;;;;6.85;6.25;;;;;;;13.79;80.12;100198.09;2750102;85;21051;-89
2022/06/02 01:01:59;;;;;;;6.80;5.55;;;;;;;13.71;79.85;100203.32;2728282;84;21086;-89
2022/06/02 01:06:24;;;;;;;8.78;5.95;;;;;;;13.66;79.68;100208.28;2738294;84;21135;-90
2022/06/02 01:10:54;;;;;;;8.43;6.33;;;;;;;13.61;80.73;100194.52;2772554;83;21105;-88
2022/06/02 01:15:28;;;;;;;8.30;6.92;;;;;;;13.52;80.77;100189.06;2830463;83;21743;-90
2022/06/02 01:20:05;;;;;;;8.28;6.67;;;;;;;13.49;80.91;100196.55;2836789;83;21102;-89
2022/06/02 01:24:31;;;;;;;;;;;;;;;13.23;81.94;100202.02;2843248;82;21796;-90
2022/06/02 01:28:47;;;;;;;9.20;7.80;;;;;;;13.06;83.66;100213.44;2892681;81;20145;-90
2022/06/02 01:33:13;;;;;;;10.70;8.08;;;;;;;13.08;83.67;100216.80;2893597;81;21094;-90
2022/06/02 01:37:24;;;;;;;;;;;;;;;13.14;83.88;100221.56;2894563;81;21015;-89
2022/06/02 01:42:04;;;;;;;8.15;7.35;;;;;;;13.24;84.04;100210.37;2875652;82;20133;-90
2022/06/02 01:46:35;;;;;;;12.33;9.40;;;;;;;13.24;83.47;100209.52;2892734;81;21062;-90
2022/06/02 01:50:56;;;;;;;13.15;8.95;;;;;;;13.19;84.12;100210.45;2830355;82;21027;-90
2022/06/02 01:55:36;;;;;;;8.05;7.10;;;;;;;13.04;84.28;100216.23;2830481;82;21185;-89
2022/06/02 02:00:01;;;;;;;7.53;6.72;;;;;;;13.07;84.12;100227.14;2834857;82;21051;-89
2022/06/02 02:04:40;;;;;;;8.85;6.42;;;;;;;12.91;82.84;100244.58;2835242;82;21723;-90
2022/06/02 02:09:08;;;;;;;8.78;7.03;;;;;;;12.60;83.40;100256.77;2835383;82;21082;-91
2022/06/02 02:13:47;;;;;;;11.20;7.90;;;;;;;12.35;84.06;100266.96;2837283;82;21058;-91
2022/06/02 02:18:16;;;;;;;10.10;8.23;;;;;;;12.02;85.38;100270.82;2629848;87;21089;-91
2022/06/02 02:22:49;;;;;;;8.45;7.65;;;;;;;11.99;88.96;100284.74;2613863;89;21010;-91
2022/06/02 02:28:03;;;;;;;9.73;8.35;;;;;;;12.05;90.90;100283.88;2649726;87;21572;-92
2022/06/02 02:32:45;;;;;;;12.00;9.50;;;;;;;12.10;91.68;100282.49;2635428;89;21373;-91
2022/06/02 02:37:12;;;;;;;12.50;8.63;;;;;;;12.28;92.27;100289.84;2647146;88;21424;-91
2022/06/02 02:41:35;;;;;;;11.22;8.18;;;;;;;12.32;93.43;100296.58;2702425;87;21080;-92
2022/06/02 02:46:07;;;;;;;7.72;6.95;;;;;;;12.36;94.66;100309.98;2690404;86;21065;-92
2022/06/02 02:50:28;;;;;;;9.13;7.92;;;;;;;12.36;97.04;100313.99;2636056;88;21753;-90
2022/06/02 02:54:47;;;;;;;9.78;7.90;;;;;;;12.46;97.74;100330.53;2745935;84;21090;-91
2022/06/02 02:59:23;;;;;;;8.48;7.70;;;;;;;12.53;99.50;100332.98;2806755;83;21111;-91
2022/06/02 03:03:55;;;;;;;8.28;7.30;;;;;;;12.64;98.57;100344.89;2774269;84;20984;-93
2022/06/02 03:08:13;;;;;;;7.15;6.03;;;;;;;12.72;97.76;100357.55;2802735;82;21038;-92
2022/06/02 03:12:41;;;;;;;8.23;7.45;;;;;;;12.83;96.76;100363.25;2823647;82;21034;-93
2022/06/02 03:16:45;;;;;;;8.53;7.70;;;;;;;12.86;96.21;100361.12;2794041;82;21074;-94
2022/06/02 03:21:09;;;;;;;8.90;7.28;;;;;;;12.86;96.21;100368.30;2752605;82;21062;-94
2022/06/02 03:25:31;;;;;;;9.03;7.42;;;;;;;12.92;95.51;100358.39;2812357;82;21830;-95
2022/06/02 03:29:47;;;;;;;8.28;6.42;;;;;;;12.87;95.69;100369.99;2818786;83;21087;-94
2022/06/02 03:34:23;;;;;;;7.50;6.80;;;;;;;12.88;95.50;100381.53;2815055;83;21545;-95
2022/06/02 03:38:59;;;;;;;9.10;7.47;;;;;;;12.82;95.56;100378.91;2816027;82;21987;-95
2022/06/02 03:43:15;;;;;;;10.95;7.85;;;;;;;12.76;95.35;100395.45;2772205;82;21025;-95
2022/06/02 03:47:24;;;;;;;7.15;6.55;;;;;;;12.80;94.81;100411.58;2790507;82;22179;-95
2022/06/02 03:51:42;;;;;;;8.00;6.40;;;;;;;12.92;94.40;100425.14;2860709;82;21090;-95
2022/06/02 03:56:23;;;;;;;9.68;6.83;;;;;;;13.06;94.39;100422.55;2857354;82;21071;-96
2022/06/02 04:00:32;;;;;;;7.03;6.00;;;;;;;13.23;93.92;100426.86;2849160;82;21114;-92
2022/06/02 04:05:15;;;;;;;8.08;7.12;;;;;;;13.36;92.93;100430.59;2835043;82;21043;-93
2022/06/02 04:09:34;;;;;;;5.17;4.78;;;;;;;13.44;92.56;100428.11;2861097;82;21039;-94
2022/06/02 04:13:47;;;;;;;8.68;6.40;;;;;;;13.50;92.01;100432.88;2848981;82;21114;-93
2022/06/02 04:18:06;;;;;;;5.60;5.08;;;;;;;13.59;91.69;100435.19;2847941;82;21512;-94
2022/06/02 04:22:42;;;;;;;6.83;5.03;;;;;;;13.78;91.64;100441.03;2720308;85;21076;-93
2022/06/02 04:27:04;;;;;;;6.20;5.62;;;;;;;13.97;90.98;100450.00;2752814;84;21067;-92
2022/06/02 04:31:34;;;;;;;6.42;4.60;;;;;;;14.05;90.67;100457.27;2689430;85;21131;-92
2022/06/02 04:36:10;;;;;;;6.72;5.65;;;;;;;14.06;88.75;100447.78;2680140;87;21176;-94
2022/06/02 04:40:28;;;;;;;8.18;5.25;;;;;;;14.14;88.83;100463.94;2684442;85;21072;-92
2022/06/02 04:45:05;;;;;;;7.67;5.15;;;;;;;14.22;88.96;100484.62;2675350;87;21177;-93
2022/06/02 04:49:27;;;;;;;5.85;5.28;;;;;;;14.22;88.62;100479.78;2682608;87;21728;-90
2022/06/02 04:54:02;;;;;;;6.92;4.58;;;;;;;14.01;88.57;100466.10;2697859;85;21178;-92
2022/06/02 04:58:23;;;;;;;4.45;3.98;;;;;;;13.84;89.34;100469.00;2738426;85;21063;-92
2022/06/02 05:02:47;;;;;;;4.62;4.25;;;;;;;13.69;89.59;100466.78;2780456;84;21096;-92
2022/06/02 05:07:30;;;;;;;3.47;3.17;;;;;;;13.56;90.98;100482.25;2802016;83;21102;-92
2022/06/02 05:11:59;;;;;;;3.08;2.77;;;;;;;13.45;92.47;100493.92;2851299;82;21654;-93
2022/06/02 05:16:27;;;;;;;4.90;3.80;;;;;;;13.59;93.49;100497.17;2852894;82;21028;-91
2022/06/02 05:20:34;;;;;;;3.02;2.65;;;;;;;13.70;92.25;100501.02;2821781;82;21126;-91
2022/06/02 05:25:22;;;;;;;4.35;3.22;;;;;;;13.77;90.97;100506.17;2847243;80;21031;-92
2022/06/02 05:30:01;;;;;;;4.28;3.37;;;;;;;13.79;87.49;100508.69;2827819;82;21004;-92
2022/06/02 05:34:38;;;;;;;3.17;2.95;;;;;;;14.20;89.47;100517.36;2680750;87;21466;-92
2022/06/02 05:39:05;;;;;;;3.75;3.45;;;;;;;15.14;87.76;100521.50;2697605;86;21601;-92
2022/06/02 05:43:21;;;;;;;3.20;2.95;;;;;;;15.58;80.94;100514.05;2775274;84;21642;-91
2022/06/02 05:47:53;;;;;;;6.27;4.23;;;;;;;16.05;77.69;100512.97;2748146;83;21064;-91
2022/06/02 05:52:12;;;;;;;3.40;3.10;;;;;;;16.30;75.91;100509.11;2761582;84;21054;-93
2022/06/02 05:56:43;;;;;;;5.08;4.15;;;;;;;16.41;77.22;100506.69;2790654;83;21018;-92
2022/06/02 06:01:23;;;;;;;4.95;4.50;;;;;;;16.46;74.63;100519.13;2731798;84;21411;-91
2022/06/02 06:05:45;;;;;;;5.05;4.50;;;;;;;16.64;74.95;100505.63;2744747;84;21058;-91
2022/06/02 06:10:00;;;;;;;4.62;4.22;;;;;;;16.68;73.92;100524.43;2765401;83;21109;-92
2022/06/02 06:14:28;;;;;;;7.13;5.33;;;;;;;16.87;71.75;100525.19;2836804;83;21126;-92
2022/06/02 06:18:50;;;;;;;6.78;5.92;;;;;;;16.86;72.23;100534.25;2830624;82;21838;-91
2022/06/02 06:22:59;;;;;;;5.87;3.92;;;;;;;16.89;71.73;100521.02;2735878;84;21076;-92
2022/06/02 06:27:33;;;;;;;6.30;5.70;;;;;;;16.68;71.40;100533.00;2748621;84;21105;-91
2022/06/02 06:49:50;;;;;;;4.30;3.30;;;;;;;17.97;68.70;100547.66;2877345;81;21062;-64
2022/06/02 06:54:40;;;;;;;4.00;3.55;;;;;;;17.74;66.38;100560.43;2836449;82;20992;-63
2022/06/02 06:58:53;;;;;;;3.52;2.40;;;;;;;18.01;69.39;100567.84;2876991;81;21000;-64
2022/06/02 07:03:27;;;;;;;3.45;3.15;;;;;;;18.23;66.46;100566.36;2923062;80;21004;-63
2022/06/02 07:08:09;;;;;;;4.42;3.77;;;;;;;17.82;66.45;100567.67;2873797;81;20996;-63
2022/06/02 07:12:52;;;;;;;4.85;4.37;;;;;;;17.98;68.92;100574.41;2799034;84;21023;-63
2022/06/02 07:16:57;;;;;;;5.15;4.20;;;;;;;18.18;66.58;100570.56;2827259;83;21096;-63
2022/06/02 07:21:31;;;;;;;5.37;3.35;;;;;;;18.16;65.68;100569.89;2818029;83;21039;-63
2022/06/02 07:25:49;;;;;;;7.90;3.67;;;;;;;18.41;66.47;100570.20;2802317;83;21066;-63
2022/06/02 07:30:05;;;;;;;2.65;2.37;;;;;;;18.75;63.81;100576.88;2774089;83;21237;-63
2022/06/02 07:34:30;;;;;;;5.42;2.90;;;;;;;18.76;63.25;100579.91;2849556;82;21048;-63
2022/06/02 07:43:30;;;;;;;6.30;3.17;;;;;;;18.89;64.11;100584.74;2852581;82;21125;-63
2022/06/02 07:48:09;;;;;;;6.83;4.37;;;;;;;19.17;64.17;100585.70;2848210;82;21001;-64
2022/06/02 07:52:17;;;;;;;4.25;3.83;;;;;;;19.33;61.14;100592.34;2811029;84;21029;-63
2022/06/02 07:56:30;;;;;;;4.58;3.70;;;;;;;19.40;62.55;100596.03;2814166;84;21047;-63
2022/06/02 08:00:53;;;;;;;4.67;3.65;;;;;;;19.43;62.37;100588.08;2826391;82;20997;-63
2022/06/02 08:05:38;;;;;;;4.45;3.10;;;;;;;19.46;62.59;100597.69;2863594;82;21014;-64
2022/06/02 08:10:11;;;;;;;4.97;3.50;;;;;;;19.78;60.29;100596.64;2861156;82;21311;-64
2022/06/02 08:14:30;;;;;;;3.00;2.67;;;;;;;19.77;61.75;100607.11;2804777;82;21039;-63
2022/06/02 08:18:52;;;;;;;3.12;2.83;;;;;;;19.63;59.80;100606.52;2853588;82;21094;-64
2022/06/02 08:23:40;;;;;;;4.47;4.08;;;;;;;19.65;60.57;100611.22;2810567;82;21070;-63
2022/06/02 08:28:06;;;;;;;3.80;3.40;;;;;;;19.36;59.82;100619.48;2851219;82;20949;-63
2022/06/02 08:32:28;;;;;;;3.42;2.52;;;;;;;19.45;59.33;100623.80;2893134;81;21113;-64
2022/06/02 08:37:29;;;;;;;2.65;2.42;;;;;;;19.09;59.56;100627.02;2780667;84;21047;-63
2022/06/02 08:41:53;;;;;;;3.45;3.15;;;;;;;19.35;59.46;100629.94;2845761;82;21123;-63
2022/06/02 08:46:24;;;;;;;4.28;3.12;;;;;;;19.88;58.71;100634.19;2871009;81;21651;-63
2022/06/02 08:50:58;;;;;;;2.58;2.15;;;;;;;20.22;58.53;100626.22;2808223;82;71165;-84
2022/06/02 08:55:20;;;;;;;2.33;2.12;;;;;;;20.03;58.01;100637.52;2661097;86;21098;-84
2022/06/02 09:00:09;;;;;;;2.65;2.45;;;;;;;20.06;56.96;100633.09;2682607;86;21079;-85
2022/06/02 09:04:46;;;;;;;4.00;3.12;;;;;;;20.08;56.98;100635.95;2643808;87;21059;-84
2022/06/02 09:09:24;;;;;;;;;;;;;;;20.54;56.90;100635.58;2546231;92;21216;-85
2022/06/02 09:13:53;;;;;;;6.42;3.75;;;;;;;20.82;56.20;100632.28;2541976;91;20135;-85
2022/06/02 09:18:15;;;;;;;3.70;2.90;;;;;;;20.29;55.91;100648.45;2531370;92;21181;-85
2022/06/02 09:22:40;;;;;;;2.98;2.52;;;;;;;19.97;56.31;100649.37;2409366;96;21088;-81
2022/06/02 09:26:59;;;;;;;2.42;2.22;;;;;;;19.89;57.27;100655.30;2384890;97;21188;-84
2022/06/02 09:31:17;;;;;;;1.75;1.65;;;;;;;19.98;56.21;100650.19;2393680;98;21239;-84
2022/06/02 09:35:29;;;;;;;2.62;2.10;;;;;;;19.97;55.50;100656.61;2379804;98;21997;-84
2022/06/02 09:40:13;;;;;;;4.45;2.20;;;;;;;20.06;55.98;100658.75;2377495;98;21117;-84
2022/06/02 09:44:38;;;;;;;3.10;2.17;;;;;;;20.06;53.87;100656.05;2407525;94;21513;-85
2022/06/02 09:49:00;;;;;;;1.85;1.60;;;;;;;20.29;56.24;100658.76;2580580;90;21094;-84
2022/06/02 09:53:25;;;;;;;1.87;1.77;;;;;;;20.12;55.00;100660.72;2576944;90;21179;-84
2022/06/02 09:57:56;;;;;;;2.67;2.47;;;;;;;19.77;54.44;100653.52;2644564;84;21082;-83
2022/06/02 10:02:24;;;;;;;3.35;2.58;;;;;;;19.91;55.89;100671.66;2772394;83;21598;-84
2022/06/02 10:07:08;;;;;;;2.27;2.08;;;;;;;20.32;54.30;100664.29;2765167;83;21029;-85
2022/06/02 10:11:41;;;;;;;2.37;1.52;;;;;;;20.66;54.60;100664.34;2784692;83;21051;-85
2022/06/02 10:16:12;;;;;;;1.40;1.30;;;;;;;20.79;53.32;100659.16;2778261;83;21583;-83
2022/06/02 10:21:08;;;;;;;2.70;1.42;;;;;;;20.85;53.72;100667.08;2782460;84;21031;-85
2022/06/02 10:25:41;;;;;;;19.23;4.55;;;;;;;21.06;52.04;100662.80;2775777;83;21075;-83
2022/06/02 10:30:21;;;;;;;2.90;1.70;;;;;;;21.22;51.64;100655.86;2726658;84;21086;-84
2022/06/02 10:35:06;;;;;;;1.87;1.70;;;;;;;21.29;51.94;100652.39;2751220;85;21058;-84
2022/06/02 10:39:21;;;;;;;2.87;1.42;;;;;;;21.68;51.92;100658.02;2752672;84;20987;-85
2022/06/02 10:43:28;;;;;;;2.10;1.50;;;;;;;21.79;51.80;100652.62;2747808;84;21073;-85
2022/06/02 10:48:20;;;;;;;2.08;1.87;;;;;;;21.87;51.68;100651.13;2673218;88;21113;-85
2022/06/02 10:52:48;;;;;;;2.12;1.65;;;;;;;22.00;51.80;100648.25;2676238;87;21135;-84
2022/06/02 10:57:25;;;;;;;1.30;1.20;;;;;;;22.02;52.15;100648.39;2741661;84;21152;-84
2022/06/02 11:02:00;;;;;;;1.90;1.80;;;;;;;21.79;50.97;100648.02;2753897;85;21091;-83
2022/06/02 11:06:41;;;;;;;6.37;1.30;;;;;;;21.67;52.84;100645.51;2747801;84;21708;-82
2022/06/02 11:11:24;;;;;;;6.20;5.33;;;;;;;21.37;51.21;100626.58;2760049;84;21036;-84
2022/06/02 11:16:06;;;;;;;2.37;2.17;;;;;;;21.37;51.74;100649.58;2680218;86;21099;-85
2022/06/02 11:20:42;;;;;;;1.85;1.35;;;;;;;21.68;52.33;100631.77;2677095;86;21115;-85
2022/06/02 11:25:18;;;;;;;1.37;1.27;;;;;;;21.55;47.26;100640.55;2689827;85;21058;-85
2022/06/02 11:30:05;;;;;;;1.07;1.00;;;;;;;21.72;48.41;100636.83;2707979;84;21906;-86
2022/06/02 11:34:28;;;;;;;2.55;2.10;;;;;;;21.73;49.04;100629.84;2698096;85;21065;-86
2022/06/02 11:39:03;;;;;;;8.58;5.35;;;;;;;21.89;49.15;100632.00;2763508;83;21091;-85
2022/06/02 11:43:24;;;;;;;1.52;0.78;;;;;;;21.85;51.37;100632.89;2761338;83;21059;-84
2022/06/02 11:47:47;;;;;;;1.67;1.32;;;;;;;21.92;48.85;100640.58;2770051;83;21051;-85
2022/06/02 11:52:24;;;;;;;1.42;1.32;;;;;;;22.05;49.49;100629.54;2728239;83;21070;-81
2022/06/02 11:57:00;;;;;;;2.80;0.88;;;;;;;22.17;48.83;100633.92;2739664;84;21082;-84
2022/06/02 12:01:37;;;;;;;0.78;0.70;;;;;;;22.18;49.93;100641.87;2758226;84;21838;-83
2022/06/02 12:06:19;;;;;;;0.95;0.85;;;;;;;22.47;48.74;100627.03;2791775;83;21067;-84
2022/06/02 12:10:40;;;;;;;0.70;0.70;;;;;;;22.81;48.33;100637.61;2760228;83;21052;-83
2022/06/02 12:15:02;;;;;;;2.83;2.33;;;;;;;23.16;49.10;100632.16;2762401;83;21056;-83
2022/06/02 12:19:26;;;;;;;0.60;0.42;;;;;;;23.10;47.85;100641.11;2768059;84;21104;-84
2022/06/02 12:23:42;;;;;;;1.25;0.47;;;;;;;23.02;46.06;100631.25;2796766;83;21020;-83
2022/06/02 12:27:58;;;;;;;0.70;0.55;;;;;;;23.04;45.83;100639.20;2754205;84;21583;-81
2022/06/02 12:32:17;;;;;;;0.60;0.40;;;;;;;22.89;46.34;100651.00;2765412;83;21011;-84
2022/06/02 12:36:54;;;;;;;1.37;0.47;;;;;;;23.05;46.69;100635.45;2761234;83;21669;-81
2022/06/02 12:41:10;;;;;;;1.42;0.85;;;;;;;23.13;47.42;100645.30;2767746;84;21041;-83
2022/06/02 12:45:56;;;;;;;4.65;1.00;;;;;;;23.26;46.83;100641.31;2782599;84;20991;-83
2022/06/02 12:50:19;;;;;;;1.67;1.17;;;;;;;23.27;44.65;100642.17;2758008;84;21066;-83
2022/06/02 12:55:02;;;;;;;2.22;0.50;;;;;;;23.29;46.23;100636.87;2752146;83;21135;-83
2022/06/02 12:59:29;;;;;;;0.40;0.40;;;;;;;23.17;45.56;100633.83;2776134;83;21098;-83
2022/06/02 13:04:06;;;;;;;0.60;0.60;;;;;;;23.15;45.10;100645.94;2770391;83;21030;-84
2022/06/02 13:08:39;;;;;;;0.20;0.20;;;;;;;23.03;44.13;100638.89;2782230;84;21084;-84
2022/06/02 13:12:52;;;;;;;1.22;0.68;;;;;;;23.02;44.52;100638.57;2761621;83;21097;-83
2022/06/02 13:17:14;;;;;;;5.00;1.20;;;;;;;22.73;42.83;100634.53;2771885;84;21106;-83
2022/06/02 13:21:44;;;;;;;0.78;0.55;;;;;;;22.93;45.37;100639.25;2786220;83;21368;-83
2022/06/02 13:26:28;;;;;;;6.08;0.70;;;;;;;23.04;43.96;100647.34;2790935;83;21062;-81
2022/06/02 13:30:43;;;;;;;0.40;0.20;;;;;;;23.34;45.19;100638.95;2783304;83;21087;-82
2022/06/02 13:35:27;;;;;;;0.85;0.30;;;;;;;23.33;44.71;100640.00;2773378;83;21001;-83
2022/06/02 13:39:58;;;;;;;0.78;0.35;;;;;;;23.38;43.95;100641.58;2770442;83;21674;-82
2022/06/02 13:44:32;;;;;;;0.90;0.50;;;;;;;23.41;44.12;100647.13;2755877;84;21086;-82
2022/06/02 13:49:15;;;;;;;0.40;0.30;;;;;;;23.44;45.19;100625.00;2737864;84;21609;-84
2022/06/02 13:58:27;;;;;;;1.20;0.45;;;;;;;23.62;44.42;100643.46;2734631;82;21011;-84
2022/06/02 14:02:58;;;;;;;0.50;0.23;;;;;;;23.51;45.76;100644.89;2724838;83;21039;-85
2022/06/02 14:07:29;;;;;;;12.05;2.17;;;;;;;23.53;42.59;100647.70;2753285;84;21111;-83
2022/06/02 14:11:53;;;;;;;0.35;0.20;;;;;;;23.50;43.15;100642.68;2767984;84;21658;-87
2022/06/02 14:16:30;;;;;;;10.38;2.95;;;;;;;23.59;42.36;100638.45;2778704;83;21119;-87
2022/06/02 14:21:05;;;;;;;0.95;0.25;;;;;;;23.70;42.96;100629.69;2756520;83;21061;-82
2022/06/02 14:25:21;;;;;;;1.10;0.57;;;;;;;23.71;43.68;100642.22;2796188;82;21074;-85
2022/06/02 14:29:27;;;;;;;;;;;;;;;23.56;43.66;100654.61;2756191;84;21036;-84
2022/06/02 14:33:36;;;;;;;0.53;0.30;;;;;;;23.49;45.11;100638.30;2737839;84;20161;-84
2022/06/02 14:37:55;;;;;;;2.75;0.65;;;;;;;23.52;43.55;100647.92;2729484;84;21052;-85
2022/06/02 14:47:35;;;;;;;1.45;0.30;;;;;;;23.49;44.35;100647.80;2741575;83;21070;-85
2022/06/02 14:51:44;;;;;;;1.52;0.55;;;;;;;23.47;43.16;100650.37;2751188;84;21098;-85
2022/06/02 14:55:53;;;;;;;0.37;0.30;;;;;;;23.46;43.85;100650.91;2729316;86;21101;-85
2022/06/02 15:00:21;;;;;;;0.70;0.30;;;;;;;23.41;43.62;100645.27;2743928;85;21212;-83
2022/06/02 15:04:42;;;;;;;1.17;0.42;;;;;;;23.45;44.29;100643.81;2760298;85;21044;-84
2022/06/02 15:09:30;;;;;;;2.72;0.95;;;;;;;23.41;42.66;100645.77;2766279;85;21107;-85
2022/06/02 15:13:57;;;;;;;0.60;0.42;;;;;;;23.31;42.09;100642.92;2742092;85;21090;-86
2022/06/02 15:18:16;;;;;;;0.40;0.40;;;;;;;23.37;43.11;100643.97;2757343;85;21476;-85
2022/06/02 15:23:13;;;;;;;3.12;0.85;;;;;;;23.41;43.11;100643.91;2687599;85;21039;-85
2022/06/02 15:28:02;;;;;;;0.72;0.40;;;;;;;23.29;43.99;100647.72;2605587;88;21079;-84
2022/06/02 15:32:48;;;;;;;0.30;0.30;;;;;;;23.31;43.82;100640.72;2642289;88;21069;-84
2022/06/02 15:37:14;;;;;;;0.50;0.50;;;;;;;23.19;42.20;100635.85;2650230;88;21103;-85
2022/06/02 15:42:04;;;;;;;0.70;0.35;;;;;;;23.18;44.14;100642.28;2684288;87;21167;-83
2022/06/02 15:46:22;;;;;;;21.23;2.85;;;;;;;23.26;43.20;100637.25;2679642;87;21047;-83
2022/06/02 15:51:03;;;;;;;2.80;0.57;;;;;;;23.05;44.14;100644.41;2691075;86;21036;-84
2022/06/02 15:55:25;;;;;;;0.70;0.30;;;;;;;22.90;43.77;100644.54;2680525;86;21744;-87
2022/06/02 16:00:08;;;;;;;0.78;0.57;;;;;;;22.77;44.41;100645.30;2664778;84;21039;-85
2022/06/02 16:04:28;;;;;;;2.02;0.42;;;;;;;22.73;44.28;100649.44;2786265;83;21133;-88
2022/06/02 16:11:14;;;;;;;0.95;0.40;;;;;;;22.75;44.69;100646.02;2759560;85;21015;-87
2022/06/02 16:13:15;;;;;;;0.57;0.20;;;;;;;22.89;44.45;100646.94;2776689;83;21040;-89
2022/06/02 16:17:58;;;;;;;0.42;0.42;;;;;;;22.89;45.05;100654.22;2766157;84;21070;-85
2022/06/02 16:22:31;;;;;;;1.07;0.40;;;;;;;22.85;44.11;100657.02;2757651;83;21004;-83
2022/06/02 16:27:03;;;;;;;0.93;0.47;;;;;;;22.78;44.50;100651.53;2762529;85;21048;-88
2022/06/02 16:31:33;;;;;;;5.78;1.30;;;;;;;22.58;44.53;100651.41;2753405;85;21073;-87
2022/06/02 16:36:11;;;;;;;3.35;0.82;;;;;;;22.42;46.10;100648.44;2773712;83;21043;-86
2022/06/02 16:40:30;;;;;;;0.78;0.30;;;;;;;22.35;45.37;100643.78;2767346;84;21107;-88
2022/06/02 16:45:10;;;;;;;1.12;0.40;;;;;;;22.26;44.41;100657.16;2765920;84;21039;-87
2022/06/02 16:49:44;;;;;;;0.35;0.35;;;;;;;22.14;44.93;100650.57;2780915;83;21550;-87
2022/06/02 16:53:53;;;;;;;2.90;0.55;;;;;;;22.03;45.10;100659.55;2672152;86;21655;-88
2022/06/02 16:58:19;;;;;;;0.42;0.42;;;;;;;21.93;44.49;100652.23;2696966;86;21096;-87
2022/06/02 17:02:53;;;;;;;0.60;0.60;;;;;;;21.81;45.68;100654.11;2692196;87;21128;-87
2022/06/02 17:07:21;;;;;;;1.02;0.60;;;;;;;21.64;44.79;100660.22;2651463;86;21211;-87
2022/06/02 17:11:36;;;;;;;0.72;0.72;;;;;;;21.57;45.28;100667.93;2617196;89;21093;-88
2022/06/02 17:16:04;;;;;;;0.95;0.78;;;;;;;21.45;46.04;100660.31;2634873;87;21154;-89
2022/06/02 17:20:25;;;;;;;1.32;1.15;;;;;;;21.35;45.84;100661.11;2635960;88;21077;-88
2022/06/02 17:25:15;;;;;;;7.20;2.00;;;;;;;21.32;46.91;100664.19;2630512;88;21857;-88
2022/06/02 17:29:41;;;;;;;1.60;0.75;;;;;;;21.21;47.31;100661.45;2648179;87;21080;-90
2022/06/02 17:33:50;;;;;;;1.15;0.78;;;;;;;21.11;47.06;100668.48;2658021;84;21087;-87
2022/06/02 17:38:02;;;;;;;0.88;0.60;;;;;;;21.00;47.03;100668.94;2678697;86;21035;-85
2022/06/02 17:42:44;;;;;;;1.37;0.50;;;;;;;20.89;46.80;100679.69;2665468;86;21674;-89
2022/06/02 17:47:23;;;;;;;1.02;0.60;;;;;;;20.80;47.86;100678.94;2696418;85;21660;-87
2022/06/02 17:51:41;;;;;;;0.70;0.60;;;;;;;20.73;48.43;100681.50;2766577;83;21122;-88
2022/06/02 17:56:10;;;;;;;1.42;1.20;;;;;;;20.64;48.99;100688.02;2809988;81;21576;-88
2022/06/02 18:00:32;;;;;;;0.62;0.62;;;;;;;20.56;49.17;100684.87;2774088;83;21111;-88
2022/06/02 18:05:11;;;;;;;1.07;0.72;;;;;;;20.52;49.83;100694.37;2736391;85;21558;-88
2022/06/02 18:09:37;;;;;;;10.48;1.95;;;;;;;20.49;51.52;100690.68;2706454;87;21099;-89
2022/06/02 18:13:49;;;;;;;0.62;0.60;;;;;;;20.34;50.37;100698.22;2692077;87;21072;-86
2022/06/02 18:18:25;;;;;;;1.10;0.80;;;;;;;20.19;49.99;100701.36;2681351;86;21107;-88
2022/06/02 18:22:41;;;;;;;1.27;1.20;;;;;;;20.06;50.72;100703.30;2679714;86;21005;-91
2022/06/02 18:27:19;;;;;;;20.82;4.37;;;;;;;19.95;50.56;100708.59;2688839;87;21111;-89
2022/06/02 18:31:38;;;;;;;5.87;1.30;;;;;;;19.84;51.42;100709.80;2684484;86;21063;-91
2022/06/02 18:36:04;;;;;;;2.10;0.98;;;;;;;19.74;52.42;100711.86;2681123;87;21149;-86
2022/06/02 18:40:48;;;;;;;1.87;1.77;;;;;;;19.61;53.32;100713.78;2680586;87;21102;-89
2022/06/02 18:45:21;;;;;;;25.23;5.28;;;;;;;19.47;53.58;100716.70;2664700;87;21057;-89
2022/06/02 18:50:01;;;;;;;25.12;3.35;;;;;;;19.27;54.48;100721.15;2657918;87;21088;-89
2022/06/02 18:54:34;;;;;;;2.40;1.45;;;;;;;19.06;54.92;100731.98;2561857;89;21796;-90
2022/06/02 18:59:23;;;;;;;1.82;1.60;;;;;;;18.86;55.23;100735.49;2578281;90;21050;-90
2022/06/02 19:03:36;;;;;;;1.25;1.00;;;;;;;18.67;55.55;100751.02;2579710;90;21463;-90
2022/06/02 19:17:55;;;;;;;5.05;2.35;;;;;;;18.12;56.39;100761.85;2554651;91;21099;-90
2022/06/02 19:22:21;;;;;;;3.17;1.72;;;;;;;17.88;57.36;100766.61;2536283;92;21129;-92
2022/06/02 19:26:40;;;;;;;4.78;3.70;;;;;;;17.59;58.79;100776.77;2555591;90;21159;-87
2022/06/02 19:31:20;;;;;;;7.35;5.30;;;;;;;17.33;59.85;100773.57;2542918;90;21440;-89
2022/06/02 19:35:29;;;;;;;7.28;5.80;;;;;;;17.15;60.69;100787.08;2547612;90;21589;-89
2022/06/02 19:39:51;;;;;;;125.42;26.62;;;;;;;16.96;61.41;100787.57;2553550;90;21137;-89
2022/06/02 19:44:10;;;;;;;62.67;15.10;;;;;;;16.80;61.95;100784.73;2567253;90;21066;-89
2022/06/02 19:48:52;;;;;;;39.23;14.25;;;;;;;16.64;62.29;100792.98;2580845;90;21161;-91
2022/06/02 19:53:36;;;;;;;21.20;9.48;;;;;;;16.48;62.64;100791.00;2527395;91;21883;-88
2022/06/02 19:57:45;;;;;;;9.80;6.50;;;;;;;16.30;62.73;100800.86;2551497;91;21077;-90
2022/06/02 20:01:51;;;;;;;7.17;5.90;;;;;;;15.83;67.60;100793.25;2569719;91;21141;-85
2022/06/02 20:06:00;;;;;;;7.92;7.12;;;;;;;15.44;67.14;100797.41;2631646;87;21134;-91
2022/06/02 20:10:19;;;;;;;9.05;7.50;;;;;;;15.34;66.45;100794.75;2687614;86;22198;-91
2022/06/02 20:14:39;;;;;;;11.80;10.10;;;;;;;15.32;66.41;100804.74;2732017;85;21019;-90
2022/06/02 20:18:52;;;;;;;8.68;6.67;;;;;;;15.26;66.23;100803.00;2760623;82;21067;-87
2022/06/02 20:22:59;;;;;;;6.80;6.10;;;;;;;15.25;66.19;100807.19;2801862;83;21087;-91
2022/06/02 20:27:18;;;;;;;5.05;4.50;;;;;;;15.24;66.16;100812.19;2759874;82;21103;-87
2022/06/02 20:31:27;;;;;;;7.53;4.05;;;;;;;15.16;66.42;100804.87;2800716;82;20996;-90
2022/06/02 20:35:49;;;;;;;9.70;4.58;;;;;;;15.05;66.74;100808.55;2737839;83;21092;-90
2022/06/02 20:40:10;;;;;;;101.53;23.60;;;;;;;14.93;66.88;100814.52;2737833;84;21643;-90
2022/06/02 20:44:45;;;;;;;128.57;26.40;;;;;;;14.82;67.36;100811.48;2767627;84;21121;-89
2022/06/02 20:49:24;;;;;;;129.82;28.27;;;;;;;14.74;67.50;100819.87;2773917;83;21073;-87
2022/06/02 20:53:36;;;;;;;55.05;14.53;;;;;;;14.63;67.42;100823.49;2768657;83;21119;-86
2022/06/02 20:58:13;;;;;;;18.67;7.05;;;;;;;14.53;67.70;100822.14;2746078;84;21074;-89
2022/06/02 21:02:20;;;;;;;10.35;5.30;;;;;;;14.42;68.10;100834.68;2734472;83;21161;-90
2022/06/02 21:06:26;;;;;;;3.40;3.00;;;;;;;14.11;70.57;100840.07;2735715;83;21069;-91
2022/06/02 21:10:33;;;;;;;6.45;5.85;;;;;;;13.86;72.28;100846.75;2749842;83;21057;-88
2022/06/02 21:14:38;;;;;;;5.40;4.17;;;;;;;13.68;72.33;100841.16;2766816;84;21572;-90
2022/06/02 21:19:24;;;;;;;7.60;5.17;;;;;;;13.67;71.90;100843.47;2737294;85;21045;-91
2022/06/02 21:23:29;;;;;;;35.10;8.13;;;;;;;13.56;72.70;100847.94;2711350;86;21048;-89